createdAt,value
2018-12-31T00:01:21.520Z,7.40
2018-12-31T00:04:11.304Z,8.55
2018-12-31T00:07:02.270Z,8.03
2018-12-31T00:09:52.242Z,7.45
2018-12-31T00:12:42.570Z,7.78
2018-12-31T00:15:34.209Z,7.53
2018-12-31T00:18:24.376Z,7.70
2018-12-31T00:21:13.925Z,7.30
2018-12-31T00:24:03.820Z,8.10
2018-12-31T00:26:53.762Z,7.00
2018-12-31T00:29:43.465Z,7.28
2018-12-31T00:32:33.086Z,7.12
2018-12-31T00:35:23.298Z,7.22
2018-12-31T00:38:13.309Z,8.65
2018-12-31T00:41:03.505Z,7.03
2018-12-31T00:43:53.982Z,6.87
2018-12-31T00:46:44.110Z,7.47
2018-12-31T00:49:34.401Z,7.70
2018-12-31T00:52:24.433Z,7.22
2018-12-31T00:55:14.609Z,7.25
2018-12-31T00:58:05.195Z,8.00
2018-12-31T01:00:55.481Z,8.43
2018-12-31T01:03:45.241Z,6.85
2018-12-31T01:06:34.918Z,6.90
2018-12-31T01:09:24.781Z,6.90
2018-12-31T01:12:15.266Z,7.12
2018-12-31T01:15:05.400Z,6.73
2018-12-31T01:17:55.024Z,7.65
2018-12-31T01:20:44.959Z,7.60
2018-12-31T01:23:34.975Z,6.90
2018-12-31T01:26:25.244Z,7.42
2018-12-31T01:29:14.934Z,6.90
2018-12-31T01:32:04.699Z,6.75
2018-12-31T01:34:54.787Z,6.65
2018-12-31T01:37:45.265Z,7.45
2018-12-31T01:40:34.765Z,6.97
2018-12-31T01:43:24.427Z,7.25
2018-12-31T01:46:14.557Z,6.30
2018-12-31T01:49:04.710Z,6.78
2018-12-31T01:51:54.777Z,7.22
2018-12-31T01:54:45.034Z,6.30
2018-12-31T01:57:35.143Z,7.40
2018-12-31T02:00:25.779Z,6.53
2018-12-31T02:03:16.112Z,6.92
2018-12-31T02:06:06.521Z,6.50
2018-12-31T02:08:56.943Z,6.62
2018-12-31T02:11:46.459Z,6.03
2018-12-31T02:14:36.473Z,5.80
2018-12-31T02:17:26.450Z,6.85
2018-12-31T02:20:16.082Z,5.90
2018-12-31T02:23:06.457Z,6.35
2018-12-31T02:25:56.611Z,6.87
2018-12-31T02:28:46.611Z,6.42
2018-12-31T02:31:36.700Z,6.60
2018-12-31T02:34:26.370Z,5.83
2018-12-31T02:37:16.335Z,6.55
2018-12-31T02:40:07.040Z,6.75
2018-12-31T02:42:57.053Z,6.00
2018-12-31T02:45:47.257Z,6.10
2018-12-31T02:48:37.315Z,6.15
2018-12-31T02:51:26.978Z,6.35
2018-12-31T02:54:16.595Z,6.53
2018-12-31T02:57:06.453Z,5.90
2018-12-31T02:59:56.363Z,6.30
2018-12-31T03:02:46.230Z,5.95
2018-12-31T03:05:36.113Z,6.28
2018-12-31T03:08:26.261Z,6.47
2018-12-31T03:11:16.661Z,6.55
2018-12-31T03:14:07.125Z,5.67
2018-12-31T03:16:57.449Z,6.80
2018-12-31T03:19:48.864Z,5.40
2018-12-31T03:22:38.863Z,5.42
2018-12-31T03:25:28.503Z,6.10
2018-12-31T03:28:18.648Z,6.42
2018-12-31T03:31:08.773Z,5.90
2018-12-31T03:33:58.768Z,5.80
2018-12-31T03:36:48.562Z,5.75
2018-12-31T03:39:38.580Z,5.72
2018-12-31T03:42:28.889Z,5.62
2018-12-31T03:45:18.677Z,5.37
2018-12-31T03:48:08.477Z,4.55
2018-12-31T03:50:58.404Z,5.00
2018-12-31T03:53:48.193Z,5.33
2018-12-31T03:56:38.359Z,5.10
2018-12-31T03:59:28.525Z,5.67
2018-12-31T04:02:18.373Z,4.97
2018-12-31T04:05:07.906Z,4.90
2018-12-31T04:07:57.973Z,4.55
2018-12-31T04:10:47.389Z,5.62
2018-12-31T04:13:37.916Z,4.75
2018-12-31T04:16:28.103Z,4.97
2018-12-31T04:19:18.275Z,4.75
2018-12-31T04:22:08.369Z,4.33
2018-12-31T04:24:58.672Z,4.40
2018-12-31T04:27:49.222Z,5.30
2018-12-31T04:30:39.622Z,4.40
2018-12-31T04:33:30.064Z,4.72
2018-12-31T04:36:20.247Z,3.87
2018-12-31T04:39:09.714Z,3.98
2018-12-31T04:41:59.915Z,3.95
2018-12-31T04:44:50.148Z,4.28
2018-12-31T04:47:40.744Z,3.92
2018-12-31T04:50:30.656Z,3.58
2018-12-31T04:53:20.630Z,3.75
2018-12-31T04:56:10.509Z,3.40
2018-12-31T04:59:00.569Z,4.15
2018-12-31T05:01:50.290Z,3.33
2018-12-31T05:04:39.668Z,4.08
2018-12-31T05:07:29.336Z,4.05
2018-12-31T05:10:19.286Z,3.50
2018-12-31T05:13:09.283Z,2.90
2018-12-31T05:15:59.528Z,3.47
2018-12-31T05:18:49.386Z,2.98
2018-12-31T05:21:39.442Z,2.90
2018-12-31T05:24:29.157Z,2.95
2018-12-31T05:27:19.277Z,2.58
2018-12-31T05:30:09.039Z,2.80
2018-12-31T05:32:58.926Z,3.00
2018-12-31T05:35:48.371Z,2.77
2018-12-31T05:38:38.617Z,2.65
2018-12-31T05:41:29.259Z,2.80
2018-12-31T05:44:19.357Z,2.30
2018-12-31T05:47:09.153Z,2.83
2018-12-31T05:49:58.750Z,3.10
2018-12-31T05:52:48.693Z,2.75
2018-12-31T05:55:38.791Z,2.47
2018-12-31T05:58:28.755Z,2.50
2018-12-31T06:01:19.039Z,2.10
2018-12-31T06:04:09.065Z,2.35
2018-12-31T06:06:58.627Z,2.62
2018-12-31T06:09:48.613Z,2.22
2018-12-31T06:12:38.663Z,2.15
2018-12-31T06:15:28.892Z,2.10
2018-12-31T06:18:18.912Z,1.95
2018-12-31T06:21:09.135Z,1.90
2018-12-31T06:23:59.281Z,1.95
2018-12-31T06:26:49.175Z,1.82
2018-12-31T06:29:39.466Z,1.80
2018-12-31T06:32:29.917Z,2.05
2018-12-31T06:35:20.037Z,1.75
2018-12-31T06:38:09.784Z,1.80
2018-12-31T06:40:59.625Z,1.70
2018-12-31T06:43:49.789Z,1.55
2018-12-31T06:46:39.645Z,1.57
2018-12-31T06:49:29.524Z,2.10
2018-12-31T06:52:19.486Z,1.50
2018-12-31T06:55:09.210Z,1.80
2018-12-31T06:57:59.588Z,1.65
2018-12-31T07:00:49.920Z,1.60
2018-12-31T07:03:40.157Z,1.65
2018-12-31T07:06:30.181Z,2.08
2018-12-31T07:09:20.118Z,1.65
2018-12-31T07:12:10.689Z,1.57
2018-12-31T07:15:00.560Z,2.00
2018-12-31T07:17:50.661Z,1.55
2018-12-31T07:20:40.832Z,1.47
2018-12-31T07:23:30.674Z,1.60
2018-12-31T07:26:20.775Z,1.70
2018-12-31T07:29:11.301Z,1.80
2018-12-31T07:32:01.549Z,1.80
2018-12-31T07:34:51.792Z,2.00
2018-12-31T07:37:42.080Z,1.75
2018-12-31T07:40:32.644Z,1.40
2018-12-31T07:43:22.968Z,1.72
2018-12-31T07:46:13.388Z,1.90
2018-12-31T07:49:02.953Z,7.37
2018-12-31T07:51:53.104Z,3.10
2018-12-31T07:54:43.287Z,1.90
2018-12-31T07:57:33.439Z,1.50
2018-12-31T08:00:23.633Z,2.30
2018-12-31T08:03:13.426Z,1.75
2018-12-31T08:06:03.842Z,1.90
2018-12-31T08:08:54.136Z,1.40
2018-12-31T08:11:44.078Z,1.80
2018-12-31T08:14:33.466Z,1.70
2018-12-31T08:17:23.279Z,1.60
2018-12-31T08:20:13.482Z,1.75
2018-12-31T08:23:03.467Z,1.87
2018-12-31T08:25:53.546Z,1.52
2018-12-31T08:28:43.670Z,1.60
2018-12-31T08:31:34.056Z,1.40
2018-12-31T08:34:24.060Z,1.70
2018-12-31T08:37:14.376Z,1.62
2018-12-31T08:40:04.370Z,1.80
2018-12-31T08:42:54.656Z,1.70
2018-12-31T08:45:44.767Z,1.60
2018-12-31T08:48:34.714Z,1.57
2018-12-31T08:51:24.614Z,1.40
2018-12-31T08:54:14.614Z,1.12
2018-12-31T08:57:04.908Z,1.67
2018-12-31T08:59:55.275Z,1.45
2018-12-31T09:02:45.505Z,1.52
2018-12-31T09:05:35.748Z,2.15
2018-12-31T09:08:25.158Z,1.90
2018-12-31T09:11:15.090Z,1.40
2018-12-31T09:14:04.887Z,1.75
2018-12-31T09:16:55.054Z,1.50
2018-12-31T09:19:45.453Z,1.40
2018-12-31T09:22:35.594Z,1.65
2018-12-31T09:25:25.790Z,1.42
2018-12-31T09:28:15.571Z,1.52
2018-12-31T09:31:05.518Z,1.90
2018-12-31T09:33:55.458Z,2.10
2018-12-31T09:36:45.254Z,2.90
2018-12-31T09:39:35.619Z,1.92
2018-12-31T09:42:25.614Z,2.27
2018-12-31T09:45:15.468Z,2.17
2018-12-31T09:48:05.613Z,1.65
2018-12-31T09:50:55.878Z,1.80
2018-12-31T09:53:45.811Z,1.40
2018-12-31T09:56:35.992Z,1.62
2018-12-31T09:59:26.352Z,1.70
2018-12-31T10:02:16.220Z,1.50
2018-12-31T10:05:06.549Z,1.60
2018-12-31T10:07:56.617Z,1.45
2018-12-31T10:10:47.581Z,1.60
2018-12-31T10:13:38.258Z,2.12
2018-12-31T10:16:28.406Z,1.57
2018-12-31T10:19:18.486Z,2.00
2018-12-31T10:22:08.262Z,1.50
2018-12-31T10:24:58.010Z,1.55
2018-12-31T10:27:48.122Z,1.40
2018-12-31T10:30:37.736Z,1.90
2018-12-31T10:33:27.249Z,1.50
2018-12-31T10:36:17.668Z,1.92
2018-12-31T10:39:08.004Z,1.45
2018-12-31T10:41:58.566Z,1.30
2018-12-31T10:44:48.597Z,1.35
2018-12-31T10:47:38.724Z,1.62
2018-12-31T10:50:28.321Z,1.65
2018-12-31T10:53:18.836Z,1.60
2018-12-31T10:56:09.103Z,1.90
2018-12-31T10:58:59.320Z,2.00
2018-12-31T11:01:48.970Z,1.57
2018-12-31T11:04:39.539Z,2.02
2018-12-31T11:07:29.268Z,1.60
2018-12-31T11:10:19.465Z,1.57
2018-12-31T11:13:09.118Z,2.20
2018-12-31T11:16:02.055Z,1.80
2018-12-31T11:18:51.967Z,1.50
2018-12-31T11:21:42.390Z,1.55
2018-12-31T11:24:32.579Z,1.42
2018-12-31T11:27:22.093Z,1.70
2018-12-31T11:30:12.168Z,1.70
2018-12-31T11:33:02.208Z,1.80
2018-12-31T11:35:52.015Z,1.90
2018-12-31T11:38:42.346Z,1.70
2018-12-31T11:41:32.402Z,1.55
2018-12-31T11:44:22.179Z,1.95
2018-12-31T11:47:12.497Z,1.65
2018-12-31T11:50:02.371Z,1.98
2018-12-31T11:52:52.439Z,2.27
2018-12-31T11:55:42.828Z,1.60
2018-12-31T11:58:33.361Z,2.45
2018-12-31T12:01:23.656Z,2.20
2018-12-31T12:04:13.903Z,2.77
2018-12-31T12:07:04.011Z,3.92
2018-12-31T12:09:54.037Z,2.70
2018-12-31T12:12:44.833Z,2.65
2018-12-31T12:15:34.659Z,3.50
2018-12-31T12:18:24.580Z,2.87
2018-12-31T12:21:16.015Z,1.90
2018-12-31T12:24:06.430Z,2.65
2018-12-31T12:26:57.084Z,2.58
2018-12-31T12:29:46.519Z,2.87
2018-12-31T12:32:36.927Z,3.42
2018-12-31T12:35:26.854Z,1.87
2018-12-31T12:38:16.647Z,2.60
2018-12-31T12:41:07.085Z,2.08
2018-12-31T12:43:57.420Z,2.15
2018-12-31T12:46:47.879Z,1.80
2018-12-31T12:49:37.874Z,1.90
2018-12-31T12:52:29.248Z,2.33
2018-12-31T12:55:19.512Z,2.00
2018-12-31T12:58:09.530Z,2.52
2018-12-31T13:00:59.745Z,2.63
2018-12-31T13:03:49.916Z,2.20
2018-12-31T13:06:40.223Z,3.33
2018-12-31T13:09:30.464Z,3.83
2018-12-31T13:12:20.897Z,2.12
2018-12-31T13:15:11.504Z,2.90
2018-12-31T13:18:01.540Z,2.70
2018-12-31T13:20:51.857Z,2.80
2018-12-31T13:23:42.134Z,2.80
2018-12-31T13:26:32.779Z,2.40
2018-12-31T13:29:23.493Z,4.97
2018-12-31T13:32:13.626Z,3.00
2018-12-31T13:35:04.189Z,3.35
2018-12-31T13:37:53.972Z,2.20
2018-12-31T13:40:44.584Z,3.50
2018-12-31T13:43:34.491Z,3.83
2018-12-31T13:46:24.579Z,3.33
2018-12-31T13:49:14.555Z,3.80
2018-12-31T13:52:04.646Z,2.92
2018-12-31T13:54:54.576Z,3.02
2018-12-31T13:57:44.656Z,2.87
2018-12-31T14:00:34.725Z,3.77
2018-12-31T14:03:24.990Z,3.70
2018-12-31T14:06:15.358Z,2.87
2018-12-31T14:09:07.170Z,2.75
2018-12-31T14:11:57.658Z,3.02
2018-12-31T14:14:47.977Z,2.60
2018-12-31T14:17:38.819Z,3.55
2018-12-31T14:20:28.956Z,2.90
2018-12-31T14:23:18.698Z,3.33
2018-12-31T14:26:08.443Z,3.62
2018-12-31T14:28:58.567Z,2.98
2018-12-31T14:31:48.860Z,3.40
2018-12-31T14:34:39.369Z,4.40
2018-12-31T14:37:29.341Z,3.72
2018-12-31T14:40:20.109Z,4.55
2018-12-31T14:43:10.117Z,3.75
2018-12-31T14:46:00.870Z,3.22
2018-12-31T14:48:51.534Z,3.77
2018-12-31T14:51:41.798Z,4.28
2018-12-31T14:54:31.886Z,3.45
2018-12-31T14:57:22.597Z,3.40
2018-12-31T15:00:13.811Z,4.00
2018-12-31T15:03:05.535Z,3.70
2018-12-31T15:05:55.790Z,5.03
2018-12-31T15:08:45.626Z,4.40
2018-12-31T15:11:35.912Z,4.15
2018-12-31T15:14:25.919Z,4.78
2018-12-31T15:17:16.318Z,5.75
2018-12-31T15:20:09.203Z,4.90
2018-12-31T15:22:59.882Z,6.70
2018-12-31T15:25:50.125Z,5.00
2018-12-31T15:28:39.830Z,4.35
2018-12-31T15:31:30.181Z,4.70
2018-12-31T15:34:20.633Z,4.60
2018-12-31T15:37:10.587Z,4.60
2018-12-31T15:40:00.325Z,5.42
2018-12-31T15:42:50.664Z,4.70
2018-12-31T15:45:40.942Z,5.50
2018-12-31T15:48:31.176Z,7.30
2018-12-31T15:51:21.336Z,7.03
2018-12-31T15:54:11.599Z,8.03
2018-12-31T15:57:01.994Z,5.10
2018-12-31T15:59:52.459Z,7.00
2018-12-31T16:02:42.603Z,7.37
2018-12-31T16:05:32.452Z,5.72
2018-12-31T16:08:22.638Z,8.23
2018-12-31T16:11:12.991Z,6.35
2018-12-31T16:14:03.373Z,6.40
2018-12-31T16:16:54.126Z,5.22
2018-12-31T16:19:44.622Z,6.33
2018-12-31T16:22:34.944Z,5.78
2018-12-31T16:25:24.869Z,6.55
2018-12-31T16:28:15.552Z,6.80
2018-12-31T16:31:06.109Z,6.97
2018-12-31T16:33:55.960Z,6.83
2018-12-31T16:36:46.765Z,7.50
2018-12-31T16:39:37.067Z,8.40
2018-12-31T16:42:27.589Z,8.23
2018-12-31T16:45:17.432Z,7.70
2018-12-31T16:48:08.667Z,10.68
2018-12-31T16:50:59.139Z,8.30
2018-12-31T16:53:48.985Z,8.63
2018-12-31T16:56:38.589Z,10.35
2018-12-31T16:59:28.705Z,17.70
2018-12-31T17:02:19.070Z,12.82
2018-12-31T17:05:09.293Z,10.20
2018-12-31T17:07:59.874Z,9.60
2018-12-31T17:10:50.288Z,10.43
2018-12-31T17:13:40.959Z,10.43
2018-12-31T17:16:31.232Z,11.97
2018-12-31T17:19:21.469Z,16.42
2018-12-31T17:22:12.008Z,12.20
2018-12-31T17:25:02.238Z,11.60
2018-12-31T17:27:51.990Z,12.13
2018-12-31T17:30:41.866Z,12.30
2018-12-31T17:33:33.539Z,11.35
2018-12-31T17:36:23.981Z,11.55
2018-12-31T17:39:14.153Z,11.75
2018-12-31T17:42:09.637Z,14.78
2018-12-31T17:44:56.192Z,13.75
2018-12-31T17:47:46.720Z,13.78
2018-12-31T17:50:37.237Z,12.33
2018-12-31T17:53:26.932Z,13.28
2018-12-31T17:56:16.827Z,14.80
2018-12-31T17:59:06.739Z,17.02
2018-12-31T18:01:56.897Z,14.50
2018-12-31T18:04:47.512Z,18.98
2018-12-31T18:07:37.528Z,13.72
2018-12-31T18:10:27.938Z,12.50
2018-12-31T18:13:18.379Z,13.95
2018-12-31T18:16:08.411Z,13.97
2018-12-31T18:18:58.238Z,14.25
2018-12-31T18:21:47.668Z,17.02
2018-12-31T18:24:37.225Z,17.00
2018-12-31T18:27:26.758Z,15.32
2018-12-31T18:30:16.903Z,15.37
2018-12-31T18:33:06.652Z,15.72
2018-12-31T18:35:56.658Z,15.88
2018-12-31T18:38:46.814Z,15.03
2018-12-31T18:41:36.729Z,14.87
2018-12-31T18:44:26.225Z,13.90
2018-12-31T18:47:16.854Z,16.60
2018-12-31T18:50:09.475Z,17.17
2018-12-31T18:52:59.622Z,17.80
2018-12-31T18:55:50.275Z,15.60
2018-12-31T18:58:40.562Z,17.87
2018-12-31T19:01:30.758Z,16.90
2018-12-31T19:04:20.846Z,14.35
2018-12-31T19:07:11.812Z,15.90
2018-12-31T19:10:01.910Z,15.48
2018-12-31T19:12:51.994Z,14.60
2018-12-31T19:15:42.182Z,15.40
2018-12-31T19:18:32.858Z,16.82
2018-12-31T19:21:22.430Z,16.50
2018-12-31T19:24:13.146Z,21.27
2018-12-31T19:27:03.868Z,16.93
2018-12-31T19:29:54.270Z,16.23
2018-12-31T19:32:44.658Z,17.77
2018-12-31T19:35:35.057Z,18.25
2018-12-31T19:38:25.127Z,16.67
2018-12-31T19:41:15.402Z,16.75
2018-12-31T19:44:05.521Z,16.32
2018-12-31T19:46:55.790Z,17.50
2018-12-31T19:49:45.967Z,18.73
2018-12-31T19:52:36.201Z,16.90
2018-12-31T19:55:26.483Z,18.15
2018-12-31T19:58:16.574Z,18.07
2018-12-31T20:01:06.721Z,16.90
2018-12-31T20:03:57.080Z,18.70
2018-12-31T20:06:47.244Z,73.15
2018-12-31T20:09:37.373Z,49.60
2018-12-31T20:12:27.602Z,60.85
2018-12-31T20:15:17.396Z,73.57
2018-12-31T20:18:08.024Z,33.20
2018-12-31T20:20:57.847Z,18.35
2018-12-31T20:23:47.749Z,20.70
2018-12-31T20:26:37.630Z,19.07
2018-12-31T20:29:27.919Z,18.57
2018-12-31T20:32:17.815Z,16.75
2018-12-31T20:35:07.951Z,18.12
2018-12-31T20:37:57.876Z,17.80
2018-12-31T20:40:47.779Z,21.30
2018-12-31T20:43:38.484Z,20.05
2018-12-31T20:46:28.554Z,20.53
2018-12-31T20:49:19.472Z,20.43
2018-12-31T20:52:09.839Z,17.73
2018-12-31T20:55:00.652Z,17.90
2018-12-31T20:57:50.668Z,16.50
2018-12-31T21:00:41.254Z,16.50
2018-12-31T21:03:31.040Z,17.15
2018-12-31T21:06:21.780Z,18.95
2018-12-31T21:09:12.311Z,16.50
2018-12-31T21:12:02.724Z,16.97
2018-12-31T21:14:52.806Z,17.50
2018-12-31T21:17:43.078Z,20.62
2018-12-31T21:20:33.470Z,22.60
2018-12-31T21:23:23.687Z,19.23
2018-12-31T21:26:13.567Z,21.85
2018-12-31T21:29:03.654Z,18.82
2018-12-31T21:31:53.973Z,16.57
2018-12-31T21:34:43.723Z,32.58
2018-12-31T21:37:33.386Z,15.65
2018-12-31T21:40:23.811Z,15.60
2018-12-31T21:43:13.788Z,16.55
2018-12-31T21:46:03.868Z,15.40
2018-12-31T21:48:54.459Z,15.70
2018-12-31T21:51:44.866Z,18.85
2018-12-31T21:54:34.957Z,14.78
2018-12-31T21:57:24.898Z,15.68
2018-12-31T22:00:14.876Z,14.73
2018-12-31T22:03:05.390Z,18.92
2018-12-31T22:05:55.194Z,16.87
2018-12-31T22:08:45.327Z,13.95
2018-12-31T22:11:35.890Z,13.48
2018-12-31T22:14:26.118Z,13.05
2018-12-31T22:17:16.867Z,14.35
2018-12-31T22:20:08.700Z,13.43
2018-12-31T22:22:58.379Z,12.93
2018-12-31T22:25:48.628Z,13.15
2018-12-31T22:28:38.326Z,13.75
2018-12-31T22:31:28.439Z,14.50
2018-12-31T22:34:18.708Z,12.15
2018-12-31T22:37:08.920Z,15.05
2018-12-31T22:39:58.836Z,14.53
2018-12-31T22:42:49.051Z,15.00
2018-12-31T22:45:39.121Z,12.63
2018-12-31T22:48:29.251Z,11.57
2018-12-31T22:51:18.976Z,10.60
2018-12-31T22:54:08.589Z,27.00
2018-12-31T22:56:58.909Z,118.30
2018-12-31T22:59:49.418Z,71.80
2018-12-31T23:02:39.784Z,86.47
2018-12-31T23:05:32.997Z,87.57
2018-12-31T23:08:23.717Z,324.00
2018-12-31T23:11:13.984Z,78.20
2018-12-31T23:14:03.770Z,83.22
2018-12-31T23:17:04.198Z,114.17
2018-12-31T23:19:54.172Z,160.12
2018-12-31T23:22:44.375Z,157.93
2018-12-31T23:25:35.336Z,205.22
2018-12-31T23:28:25.482Z,133.75
2018-12-31T23:31:15.884Z,108.63
2018-12-31T23:34:05.862Z,138.85
2018-12-31T23:36:56.559Z,176.50
2018-12-31T23:39:46.850Z,200.47
2018-12-31T23:42:37.163Z,209.98
2018-12-31T23:45:27.560Z,224.37
2018-12-31T23:48:18.184Z,240.52
2018-12-31T23:51:07.974Z,260.95
2018-12-31T23:53:58.666Z,254.82
2018-12-31T23:56:48.704Z,253.77
2018-12-31T23:59:39.121Z,251.92
